createdAt,value
2018-12-03T00:00:26.798Z,12.50
2018-12-03T00:03:03.298Z,12.50
2018-12-03T00:05:31.566Z,12.60
2018-12-03T00:07:59.810Z,12.70
2018-12-03T00:10:28.095Z,12.60
2018-12-03T00:12:57.455Z,12.60
2018-12-03T00:15:26.637Z,12.60
2018-12-03T00:17:54.946Z,12.60
2018-12-03T00:20:23.280Z,12.70
2018-12-03T00:22:51.561Z,12.60
2018-12-03T00:25:19.807Z,12.60
2018-12-03T00:27:52.806Z,12.60
2018-12-03T00:30:21.322Z,12.50
2018-12-03T00:32:49.990Z,12.50
2018-12-03T00:35:18.262Z,12.50
2018-12-03T00:37:46.536Z,12.50
2018-12-03T00:40:14.762Z,12.50
2018-12-03T00:42:43.024Z,12.60
2018-12-03T00:45:11.252Z,12.60
2018-12-03T00:47:39.518Z,12.60
2018-12-03T00:50:07.785Z,12.50
2018-12-03T00:52:36.090Z,12.50
2018-12-03T00:55:04.930Z,12.50
2018-12-03T00:57:33.294Z,12.50
2018-12-03T01:00:01.663Z,12.50
2018-12-03T01:02:29.921Z,12.50
2018-12-03T01:04:58.838Z,12.50
2018-12-03T01:07:27.071Z,12.50
2018-12-03T01:09:55.351Z,12.50
2018-12-03T01:12:23.624Z,12.50
2018-12-03T01:14:51.849Z,12.50
2018-12-03T01:17:20.111Z,12.50
2018-12-03T01:19:48.383Z,12.50
2018-12-03T01:22:16.630Z,12.50
2018-12-03T01:24:44.877Z,12.40
2018-12-03T01:27:13.219Z,12.40
2018-12-03T01:29:41.499Z,12.50
2018-12-03T01:32:09.751Z,12.50
2018-12-03T01:34:38.033Z,12.50
2018-12-03T01:37:06.310Z,12.50
2018-12-03T01:39:34.577Z,12.50
2018-12-03T01:42:02.822Z,12.50
2018-12-03T01:44:31.027Z,12.50
2018-12-03T01:46:59.305Z,12.60
2018-12-03T01:49:27.618Z,12.50
2018-12-03T01:51:55.911Z,12.50
2018-12-03T01:54:24.259Z,12.50
2018-12-03T01:56:52.513Z,12.50
2018-12-03T01:59:20.750Z,12.50
2018-12-03T02:01:49.020Z,12.40
2018-12-03T02:04:17.262Z,12.40
2018-12-03T02:06:45.510Z,12.40
2018-12-03T02:09:13.791Z,12.40
2018-12-03T02:11:42.098Z,12.40
2018-12-03T02:14:11.319Z,12.50
2018-12-03T02:16:39.653Z,12.50
2018-12-03T02:19:07.951Z,12.50
2018-12-03T02:21:36.246Z,12.50
2018-12-03T02:24:04.883Z,12.60
2018-12-03T02:26:33.126Z,12.60
2018-12-03T02:29:02.178Z,12.70
2018-12-03T02:31:30.451Z,12.60
2018-12-03T02:33:58.698Z,12.60
2018-12-03T02:36:26.965Z,12.60
2018-12-03T02:38:55.254Z,12.70
2018-12-03T02:41:23.498Z,12.70
2018-12-03T02:43:51.726Z,12.70
2018-12-03T02:46:19.985Z,12.70
2018-12-03T02:48:48.221Z,12.80
2018-12-03T02:51:16.458Z,12.80
2018-12-03T02:53:44.747Z,12.80
2018-12-03T02:56:13.039Z,12.80
2018-12-03T02:58:41.671Z,12.80
2018-12-03T03:01:09.916Z,12.90
2018-12-03T03:03:38.226Z,12.90
2018-12-03T03:06:07.417Z,12.90
2018-12-03T03:08:35.646Z,12.90
2018-12-03T03:11:04.330Z,12.90
2018-12-03T03:13:32.589Z,13.00
2018-12-03T03:16:00.856Z,12.90
2018-12-03T03:18:29.102Z,12.90
2018-12-03T03:20:57.367Z,12.90
2018-12-03T03:23:25.652Z,12.90
2018-12-03T03:25:54.064Z,13.00
2018-12-03T03:28:22.350Z,13.00
2018-12-03T03:30:50.588Z,13.00
2018-12-03T03:33:18.827Z,13.10
2018-12-03T03:35:47.692Z,13.00
2018-12-03T03:38:15.947Z,13.00
2018-12-03T03:40:44.202Z,13.00
2018-12-03T03:43:12.514Z,13.00
2018-12-03T03:45:40.807Z,13.10
2018-12-03T03:48:09.090Z,13.10
2018-12-03T03:50:38.045Z,13.10
2018-12-03T03:53:06.331Z,13.10
2018-12-03T03:55:34.572Z,13.10
2018-12-03T03:58:02.852Z,13.10
2018-12-03T04:00:31.122Z,13.10
2018-12-03T04:02:59.439Z,13.10
2018-12-03T04:05:27.743Z,13.10
2018-12-03T04:07:55.953Z,13.10
2018-12-03T04:10:24.190Z,13.10
2018-12-03T04:12:52.875Z,13.10
2018-12-03T04:15:21.130Z,13.10
2018-12-03T04:17:49.368Z,13.10
2018-12-03T04:20:18.874Z,13.10
2018-12-03T04:22:50.484Z,13.10
2018-12-03T04:25:18.746Z,13.10
2018-12-03T04:27:47.593Z,13.10
2018-12-03T04:30:17.081Z,13.10
2018-12-03T04:32:45.337Z,13.10
2018-12-03T04:35:13.993Z,13.10
2018-12-03T04:37:42.874Z,13.10
2018-12-03T04:40:12.219Z,13.10
2018-12-03T04:42:40.454Z,13.10
2018-12-03T04:45:11.917Z,13.20
2018-12-03T04:47:40.184Z,13.10
2018-12-03T04:50:12.700Z,13.20
2018-12-03T04:52:40.998Z,13.10
2018-12-03T04:55:09.916Z,13.10
2018-12-03T04:57:38.614Z,13.00
2018-12-03T05:00:12.726Z,13.10
2018-12-03T05:02:40.953Z,13.10
2018-12-03T05:05:09.930Z,13.10
2018-12-03T05:07:39.141Z,13.10
2018-12-03T05:10:11.945Z,13.10
2018-12-03T05:12:40.205Z,13.10
2018-12-03T05:15:10.531Z,13.10
2018-12-03T05:17:39.773Z,13.20
2018-12-03T05:20:09.554Z,13.20
2018-12-03T05:22:38.058Z,13.20
2018-12-03T05:25:07.765Z,13.20
2018-12-03T05:27:36.078Z,13.20
2018-12-03T05:30:06.666Z,13.20
2018-12-03T05:32:34.925Z,13.20
2018-12-03T05:35:03.174Z,13.10
2018-12-03T05:37:31.538Z,13.10
2018-12-03T05:40:00.200Z,13.10
2018-12-03T05:42:28.857Z,13.10
2018-12-03T05:44:57.161Z,13.10
2018-12-03T05:47:25.462Z,13.10
2018-12-03T05:49:53.707Z,13.10
2018-12-03T05:52:21.951Z,13.10
2018-12-03T05:54:50.201Z,13.10
2018-12-03T05:57:18.483Z,13.10
2018-12-03T05:59:46.738Z,13.20
2018-12-03T06:02:14.979Z,13.20
2018-12-03T06:04:43.231Z,13.20
2018-12-03T06:07:11.527Z,13.20
2018-12-03T06:09:39.727Z,13.20
2018-12-03T06:12:07.963Z,13.20
2018-12-03T06:14:36.234Z,13.20
2018-12-03T06:17:04.477Z,13.20
2018-12-03T06:19:32.738Z,13.20
2018-12-03T06:22:01.009Z,13.20
2018-12-03T06:24:30.006Z,13.20
2018-12-03T06:26:58.290Z,13.30
2018-12-03T06:29:26.526Z,13.30
2018-12-03T06:31:54.843Z,13.30
2018-12-03T06:34:23.134Z,13.30
2018-12-03T06:36:51.400Z,13.30
2018-12-03T06:39:19.669Z,13.30
2018-12-03T06:41:47.879Z,13.30
2018-12-03T06:44:16.154Z,13.30
2018-12-03T06:46:44.420Z,13.20
2018-12-03T06:49:12.699Z,13.20
2018-12-03T06:51:41.033Z,13.30
2018-12-03T06:54:09.318Z,13.30
2018-12-03T06:56:37.554Z,13.30
2018-12-03T06:59:06.342Z,13.30
2018-12-03T07:01:34.616Z,13.30
2018-12-03T07:04:02.919Z,13.20
2018-12-03T07:06:31.184Z,13.20
2018-12-03T07:08:59.544Z,13.10
2018-12-03T07:11:27.793Z,13.10
2018-12-03T07:13:56.054Z,13.10
2018-12-03T07:16:24.321Z,13.10
2018-12-03T07:18:52.559Z,13.00
2018-12-03T07:21:20.854Z,13.00
2018-12-03T07:23:49.719Z,13.00
2018-12-03T07:26:18.034Z,13.00
2018-12-03T07:28:46.259Z,12.90
2018-12-03T07:31:14.518Z,12.90
2018-12-03T07:33:42.786Z,12.80
2018-12-03T07:36:11.086Z,12.70
2018-12-03T07:38:39.375Z,12.70
2018-12-03T07:41:07.642Z,12.70
2018-12-03T07:43:35.870Z,12.60
2018-12-03T07:46:04.149Z,12.60
2018-12-03T07:48:32.407Z,12.60
2018-12-03T07:51:00.671Z,12.60
2018-12-03T07:53:28.895Z,12.50
2018-12-03T07:55:57.183Z,12.50
2018-12-03T07:58:25.399Z,12.40
2018-12-03T08:00:55.102Z,12.30
2018-12-03T08:03:23.376Z,12.30
2018-12-03T08:05:51.651Z,12.20
2018-12-03T08:08:19.916Z,12.30
2018-12-03T08:10:49.794Z,12.30
2018-12-03T08:13:18.999Z,12.40
2018-12-03T08:15:48.085Z,12.50
2018-12-03T08:18:17.985Z,12.60
2018-12-03T08:20:53.562Z,12.60
2018-12-03T08:23:30.194Z,12.70
2018-12-03T08:25:58.597Z,12.70
2018-12-03T08:28:26.857Z,12.80
2018-12-03T08:30:55.119Z,12.70
2018-12-03T08:33:23.416Z,12.70
2018-12-03T08:35:51.653Z,12.60
2018-12-03T08:38:19.877Z,12.60
2018-12-03T08:40:49.084Z,12.60
2018-12-03T08:43:17.366Z,12.60
2018-12-03T08:45:46.340Z,12.60
2018-12-03T08:48:14.611Z,12.70
2018-12-03T08:50:44.936Z,12.70
2018-12-03T08:53:13.241Z,12.80
2018-12-03T08:55:41.642Z,12.80
2018-12-03T08:58:13.059Z,12.80
2018-12-03T09:00:41.650Z,12.80
2018-12-03T09:03:18.543Z,12.90
2018-12-03T09:05:46.827Z,13.00
2018-12-03T09:08:15.097Z,13.10
2018-12-03T09:10:43.770Z,13.20
2018-12-03T09:13:18.465Z,13.20
2018-12-03T09:15:55.633Z,13.40
2018-12-03T09:18:24.227Z,13.40
2018-12-03T09:20:52.519Z,13.40
2018-12-03T09:23:20.903Z,13.40
2018-12-03T09:25:49.117Z,13.40
2018-12-03T09:28:17.341Z,13.40
2018-12-03T09:30:45.583Z,13.40
2018-12-03T09:33:13.848Z,13.50
2018-12-03T09:35:42.110Z,13.50
2018-12-03T09:38:10.340Z,13.40
2018-12-03T09:40:38.580Z,13.40
2018-12-03T09:43:06.832Z,13.40
2018-12-03T09:45:35.182Z,13.30
2018-12-03T09:48:03.396Z,13.20
2018-12-03T09:50:31.643Z,13.20
2018-12-03T09:52:59.895Z,13.10
2018-12-03T09:55:31.485Z,13.10
2018-12-03T09:58:18.751Z,13.10
2018-12-03T10:00:47.032Z,13.10
2018-12-03T10:03:18.082Z,13.00
2018-12-03T10:05:49.739Z,12.90
2018-12-03T10:08:18.852Z,12.80
2018-12-03T10:10:49.482Z,12.80
2018-12-03T10:13:17.734Z,12.80
2018-12-03T10:15:46.003Z,12.80
2018-12-03T10:18:14.241Z,12.90
2018-12-03T10:20:46.643Z,12.90
2018-12-03T10:23:14.896Z,12.90
2018-12-03T10:25:45.143Z,12.90
2018-12-03T10:28:13.364Z,12.90
2018-12-03T10:30:41.634Z,12.90
2018-12-03T10:33:10.198Z,12.90
2018-12-03T10:35:39.136Z,12.90
2018-12-03T10:38:12.319Z,12.90
2018-12-03T10:40:44.198Z,13.00
2018-12-03T10:43:12.725Z,13.00
2018-12-03T10:45:41.002Z,13.00
2018-12-03T10:48:09.222Z,13.10
2018-12-03T10:50:37.503Z,13.10
2018-12-03T10:53:06.040Z,13.20
2018-12-03T10:55:37.191Z,13.20
2018-12-03T10:58:06.570Z,13.20
2018-12-03T11:00:40.381Z,13.30
2018-12-03T11:03:16.467Z,13.30
2018-12-03T11:06:23.066Z,13.30
2018-12-03T11:08:51.366Z,13.20
2018-12-03T11:11:20.030Z,13.20
2018-12-03T11:13:48.295Z,13.30
2018-12-03T11:16:29.490Z,13.30
2018-12-03T11:18:57.710Z,13.30
2018-12-03T11:21:26.813Z,13.20
2018-12-03T11:23:55.095Z,13.20
2018-12-03T11:26:30.793Z,13.20
2018-12-03T11:28:59.194Z,13.20
2018-12-03T11:31:30.097Z,13.20
2018-12-03T11:33:58.334Z,13.20
2018-12-03T11:36:33.046Z,13.10
2018-12-03T11:40:06.370Z,13.00
2018-12-03T11:42:36.563Z,13.10
2018-12-03T11:45:06.654Z,13.10
2018-12-03T11:47:34.943Z,13.20
2018-12-03T11:50:03.190Z,13.10
2018-12-03T11:52:31.531Z,13.10
2018-12-03T11:54:59.809Z,13.10
2018-12-03T11:57:28.102Z,13.10
2018-12-03T11:59:56.346Z,13.10
2018-12-03T12:02:24.598Z,13.10
2018-12-03T12:04:52.843Z,13.10
2018-12-03T12:07:21.086Z,13.10
2018-12-03T12:09:49.343Z,13.10
2018-12-03T12:12:17.587Z,13.20
2018-12-03T12:14:45.867Z,13.20
2018-12-03T12:17:14.171Z,13.20
2018-12-03T12:19:42.483Z,13.20
2018-12-03T12:22:10.772Z,13.20
2018-12-03T12:24:39.015Z,13.10
2018-12-03T12:27:08.445Z,13.10
2018-12-03T12:29:36.696Z,13.20
2018-12-03T12:32:05.118Z,13.20
2018-12-03T12:34:33.351Z,13.20
2018-12-03T12:37:01.622Z,13.20
2018-12-03T12:39:29.891Z,13.20
2018-12-03T12:41:58.166Z,13.20
2018-12-03T12:44:26.443Z,13.10
2018-12-03T12:46:54.849Z,13.10
2018-12-03T12:49:23.163Z,13.10
2018-12-03T12:51:51.780Z,13.10
2018-12-03T12:54:19.766Z,13.20
2018-12-03T12:56:48.026Z,13.20
2018-12-03T12:59:16.279Z,13.20
2018-12-03T13:01:44.571Z,13.20
2018-12-03T13:04:12.799Z,13.20
2018-12-03T13:06:41.072Z,13.20
2018-12-03T13:09:10.446Z,13.30
2018-12-03T13:11:39.600Z,13.20
2018-12-03T13:14:09.913Z,13.20
2018-12-03T13:16:38.157Z,13.20
2018-12-03T13:19:07.891Z,13.20
2018-12-03T13:21:36.170Z,13.20
2018-12-03T13:24:04.712Z,13.20
2018-12-03T13:26:34.599Z,13.10
2018-12-03T13:29:02.859Z,13.10
2018-12-03T13:31:31.675Z,13.00
2018-12-03T13:33:59.952Z,13.00
2018-12-03T13:36:28.250Z,12.90
2018-12-03T13:38:56.519Z,12.80
2018-12-03T13:41:24.827Z,12.80
2018-12-03T13:43:53.127Z,12.70
2018-12-03T13:46:21.484Z,12.70
2018-12-03T13:48:49.726Z,12.70
2018-12-03T13:51:18.018Z,12.70
2018-12-03T13:53:46.314Z,12.80
2018-12-03T13:56:14.632Z,12.90
2018-12-03T13:58:42.938Z,12.80
2018-12-03T14:01:11.238Z,12.80
2018-12-03T14:03:40.835Z,12.80
2018-12-03T14:06:19.698Z,12.80
2018-12-03T14:08:59.505Z,12.60
2018-12-03T14:11:31.947Z,12.60
2018-12-03T14:14:11.626Z,12.50
2018-12-03T14:16:53.290Z,12.40
2018-12-03T14:19:26.138Z,12.30
2018-12-03T14:22:02.488Z,12.30
2018-12-03T14:24:30.722Z,12.30
2018-12-03T14:26:59.105Z,12.20
2018-12-03T14:29:27.386Z,12.30
2018-12-03T14:31:55.659Z,12.30
2018-12-03T14:34:27.069Z,12.20
2018-12-03T14:36:54.034Z,12.30
2018-12-03T14:39:22.308Z,12.30
2018-12-03T14:41:50.616Z,12.10
2018-12-03T14:44:18.923Z,12.00
2018-12-03T14:46:47.142Z,12.00
2018-12-03T14:49:15.411Z,12.00
2018-12-03T14:51:43.654Z,11.90
2018-12-03T14:54:11.934Z,11.90
2018-12-03T14:56:40.220Z,11.90
2018-12-03T14:59:08.483Z,11.90
2018-12-03T15:01:36.741Z,11.90
2018-12-03T15:04:10.814Z,11.90
2018-12-03T15:06:39.365Z,11.80
2018-12-03T15:09:08.622Z,11.90
2018-12-03T15:11:36.887Z,11.80
2018-12-03T15:14:05.782Z,11.80
2018-12-03T15:16:34.287Z,11.70
2018-12-03T15:19:02.521Z,11.70
2018-12-03T15:21:30.750Z,11.70
2018-12-03T15:23:59.095Z,11.70
2018-12-03T15:26:34.089Z,11.70
2018-12-03T15:29:02.402Z,11.70
2018-12-03T15:31:30.661Z,11.70
2018-12-03T15:33:59.935Z,11.70
2018-12-03T15:36:28.214Z,11.70
2018-12-03T15:38:56.498Z,11.70
2018-12-03T15:41:25.077Z,11.70
2018-12-03T15:43:53.353Z,11.70
2018-12-03T15:46:21.644Z,11.60
2018-12-03T15:48:49.890Z,11.60
2018-12-03T15:51:18.143Z,11.60
2018-12-03T15:53:46.410Z,11.60
2018-12-03T15:56:14.681Z,11.60
2018-12-03T15:58:42.959Z,11.60
2018-12-03T16:01:14.440Z,11.60
2018-12-03T16:03:39.784Z,11.50
2018-12-03T16:06:08.018Z,11.50
2018-12-03T16:08:36.246Z,11.50
2018-12-03T16:11:04.511Z,11.60
2018-12-03T16:13:32.774Z,11.50
2018-12-03T16:16:01.082Z,11.50
2018-12-03T16:18:29.420Z,11.50
2018-12-03T16:20:57.781Z,11.40
2018-12-03T16:23:26.076Z,11.40
2018-12-03T16:25:54.324Z,11.30
2018-12-03T16:28:22.665Z,11.30
2018-12-03T16:30:51.027Z,11.30
2018-12-03T16:33:19.292Z,11.30
2018-12-03T16:35:47.577Z,11.30
2018-12-03T16:38:15.858Z,11.30
2018-12-03T16:40:44.114Z,11.40
2018-12-03T16:43:12.388Z,11.30
2018-12-03T16:45:40.765Z,11.30
2018-12-03T16:48:09.855Z,11.40
2018-12-03T16:50:38.648Z,11.40
2018-12-03T16:53:06.935Z,11.40
2018-12-03T16:55:35.210Z,11.50
2018-12-03T16:58:03.500Z,11.50
2018-12-03T17:00:31.782Z,11.50
2018-12-03T17:03:00.053Z,11.50
2018-12-03T17:05:28.359Z,11.50
2018-12-03T17:07:56.669Z,11.50
2018-12-03T17:10:24.955Z,11.50
2018-12-03T17:12:54.226Z,11.50
2018-12-03T17:15:22.489Z,11.50
2018-12-03T17:17:50.788Z,11.60
2018-12-03T17:20:30.554Z,11.70
2018-12-03T17:23:04.778Z,11.70
2018-12-03T17:25:39.472Z,11.60
2018-12-03T17:28:07.848Z,11.70
2018-12-03T17:30:36.138Z,11.70
2018-12-03T17:33:04.430Z,11.70
2018-12-03T17:35:32.808Z,11.70
2018-12-03T17:38:01.080Z,11.70
2018-12-03T17:40:30.444Z,11.60
2018-12-03T17:42:59.317Z,11.60
2018-12-03T17:45:28.162Z,11.60
2018-12-03T17:47:57.584Z,11.60
2018-12-03T17:50:25.945Z,11.60
2018-12-03T17:52:54.234Z,11.60
2018-12-03T17:55:25.275Z,11.70
2018-12-03T17:57:53.560Z,11.80
2018-12-03T18:00:21.906Z,11.70
2018-12-03T18:02:50.174Z,11.70
2018-12-03T18:05:18.493Z,11.70
2018-12-03T18:07:46.766Z,11.70
2018-12-03T18:10:15.624Z,11.50
2018-12-03T18:12:44.069Z,11.50
2018-12-03T18:15:13.863Z,11.50
2018-12-03T18:17:42.233Z,11.50
2018-12-03T18:20:10.589Z,11.50
2018-12-03T18:22:38.934Z,11.40
2018-12-03T18:25:07.772Z,11.50
2018-12-03T18:27:36.165Z,11.50
2018-12-03T18:30:07.147Z,11.60
2018-12-03T18:32:35.547Z,11.60
2018-12-03T18:35:03.958Z,11.60
2018-12-03T18:37:32.352Z,11.60
2018-12-03T18:40:00.682Z,11.60
2018-12-03T18:42:30.135Z,11.60
2018-12-03T18:44:58.863Z,11.50
2018-12-03T18:47:27.890Z,11.50
2018-12-03T18:50:01.025Z,11.50
2018-12-03T18:52:29.432Z,11.60
2018-12-03T18:54:58.060Z,11.60
2018-12-03T18:57:26.414Z,11.60
2018-12-03T18:59:54.776Z,11.60
2018-12-03T19:02:23.452Z,11.60
2018-12-03T19:04:53.040Z,11.50
2018-12-03T19:07:21.614Z,11.50
2018-12-03T19:09:50.018Z,11.50
2018-12-03T19:12:19.435Z,11.40
2018-12-03T19:14:47.749Z,11.40
2018-12-03T19:17:17.128Z,11.30
2018-12-03T19:19:45.737Z,11.30
2018-12-03T19:22:14.804Z,11.30
2018-12-03T19:24:43.171Z,11.40
2018-12-03T19:27:11.519Z,11.30
2018-12-03T19:29:39.885Z,11.40
2018-12-03T19:32:08.931Z,11.50
2018-12-03T19:34:37.335Z,11.50
2018-12-03T19:37:05.696Z,11.50
2018-12-03T19:39:34.045Z,11.50
2018-12-03T19:42:02.459Z,11.50
2018-12-03T19:44:31.267Z,11.50
2018-12-03T19:46:59.738Z,11.50
2018-12-03T19:49:29.534Z,11.50
2018-12-03T19:51:59.806Z,11.50
2018-12-03T19:54:28.187Z,11.50
2018-12-03T19:56:58.183Z,11.50
2018-12-03T19:59:29.259Z,11.50
2018-12-03T20:01:57.655Z,11.40
2018-12-03T20:04:32.276Z,11.40
2018-12-03T20:07:00.760Z,11.40
2018-12-03T20:09:29.162Z,11.40
2018-12-03T20:11:58.094Z,11.30
2018-12-03T20:14:28.265Z,11.30
2018-12-03T20:16:58.560Z,11.30
2018-12-03T20:19:27.278Z,11.40
2018-12-03T20:21:55.893Z,11.40
2018-12-03T20:24:26.114Z,11.40
2018-12-03T20:27:02.544Z,11.40
2018-12-03T20:29:39.819Z,11.40
2018-12-03T20:32:20.835Z,11.40
2018-12-03T20:35:04.183Z,11.40
2018-12-03T20:37:42.837Z,11.40
2018-12-03T20:40:22.812Z,11.40
2018-12-03T20:43:12.524Z,11.30
2018-12-03T20:45:51.975Z,11.20
2018-12-03T20:48:28.008Z,11.20
2018-12-03T20:51:05.340Z,11.20
2018-12-03T20:56:23.083Z,11.10
2018-12-03T20:58:51.462Z,10.70
2018-12-03T21:01:20.576Z,10.40
2018-12-03T21:03:49.289Z,10.20
2018-12-03T21:06:18.078Z,10.10
2018-12-03T21:08:46.997Z,9.90
2018-12-03T21:11:15.357Z,9.90
2018-12-03T21:13:43.718Z,10.00
2018-12-03T21:16:12.584Z,10.00
2018-12-03T21:18:41.289Z,10.00
2018-12-03T21:21:10.992Z,9.90
2018-12-03T21:23:40.608Z,9.90
2018-12-03T21:26:09.313Z,9.70
2018-12-03T21:28:37.704Z,9.50
2018-12-03T21:31:06.001Z,9.40
2018-12-03T21:33:34.308Z,9.30
2018-12-03T21:36:02.629Z,9.20
2018-12-03T21:38:31.986Z,9.30
2018-12-03T21:41:32.185Z,9.40
2018-12-03T21:43:59.731Z,9.40
2018-12-03T21:46:27.276Z,9.30
2018-12-03T21:48:54.841Z,9.20
2018-12-03T21:51:22.427Z,9.20
2018-12-03T21:53:49.957Z,9.10
2018-12-03T21:56:17.535Z,9.10
2018-12-03T21:58:45.085Z,9.10
2018-12-03T22:01:12.593Z,9.00
2018-12-03T22:03:40.143Z,8.90
2018-12-03T22:06:07.668Z,8.90
2018-12-03T22:08:35.264Z,8.80
2018-12-03T22:11:02.803Z,8.90
2018-12-03T22:13:30.327Z,8.90
2018-12-03T22:15:57.924Z,8.90
2018-12-03T22:18:25.449Z,8.90
2018-12-03T22:20:52.967Z,8.90
2018-12-03T22:23:20.531Z,8.80
2018-12-03T22:25:48.049Z,8.90
2018-12-03T22:28:15.602Z,9.00
2018-12-03T22:30:43.132Z,9.00
2018-12-03T22:33:10.663Z,9.00
2018-12-03T22:35:38.187Z,9.10
2018-12-03T22:38:05.722Z,9.10
2018-12-03T22:40:33.278Z,9.10
2018-12-03T22:43:00.795Z,9.00
2018-12-03T22:45:28.325Z,9.00
2018-12-03T22:47:55.895Z,9.00
2018-12-03T22:50:23.397Z,9.00
2018-12-03T22:52:50.920Z,9.10
2018-12-03T22:55:18.455Z,9.00
2018-12-03T22:57:45.952Z,9.10
2018-12-03T23:00:15.599Z,9.10
2018-12-03T23:02:43.247Z,9.10
2018-12-03T23:05:10.836Z,9.10
2018-12-03T23:07:38.375Z,9.20
2018-12-03T23:10:06.023Z,9.10
2018-12-03T23:12:33.536Z,9.20
2018-12-03T23:15:01.211Z,9.20
2018-12-03T23:17:28.902Z,9.20
2018-12-03T23:19:56.415Z,9.20
2018-12-03T23:22:23.924Z,9.20
2018-12-03T23:24:51.439Z,9.10
2018-12-03T23:27:18.938Z,9.10
2018-12-03T23:29:46.451Z,9.00
2018-12-03T23:32:13.954Z,8.90
2018-12-03T23:34:41.447Z,8.80
2018-12-03T23:37:08.993Z,8.70
2018-12-03T23:39:36.662Z,8.60
2018-12-03T23:42:04.235Z,8.50
2018-12-03T23:44:31.764Z,8.50
2018-12-03T23:47:00.311Z,8.50
2018-12-03T23:49:27.825Z,8.50
2018-12-03T23:51:55.360Z,8.50
2018-12-03T23:54:22.896Z,8.60
2018-12-03T23:56:50.467Z,8.50
2018-12-03T23:59:17.994Z,8.50
